Time;durP1;ratioP1;P1;durP2;ratioP2;P2;SDS_P1;SDS_P2;PMS_P1;PMS_P2;Temp;Humidity;BMP_temperature;BMP_pressure;BME280_temperature;BME280_humidity;BME280_pressure;Samples;Min_cycle;Max_cycle;Signal;HPM_P1;HPM_P2
2023/01/11 00:00:38;;;;;;;;;;;;;;;4.40;68.31;98199.34;4988161;28;19926;-70
2023/01/11 00:03:33;;;;;;;;;;;;;;;4.44;68.63;98196.94;4989855;28;20268;-70
2023/01/11 00:06:03;;;;;;;;;;;;;;;4.36;68.55;98194.75;4991590;28;19988;-70
2023/01/11 00:08:35;;;;;;;;;;;;;;;4.43;68.21;98198.00;4989969;28;20291;-70
2023/01/11 00:11:03;;;;;;;;;;;;;;;4.48;68.46;98200.72;4991964;28;19926;-70
2023/01/11 00:13:31;;;;;;;;;;;;;;;4.46;68.37;98200.16;4992268;28;19949;-70
2023/01/11 00:16:05;;;;;;;;;;;;;;;4.39;68.36;98202.31;4984965;28;19933;-70
2023/01/11 00:18:33;;;;;;;;;;;;;;;4.45;68.77;98193.97;4989584;28;19932;-71
2023/01/11 00:21:04;;;;;;;;;;;;;;;4.60;68.09;98203.16;4991998;28;20410;-71
2023/01/11 00:23:32;;;;;;;;;;;;;;;4.56;68.87;98202.06;4992755;28;19932;-70
2023/01/11 00:26:02;;;;;;;;;;;;;;;4.46;68.48;98205.53;4990310;28;19926;-70
2023/01/11 00:28:31;;;;;;;;;;;;;;;4.48;68.26;98198.03;4991562;28;20366;-70
2023/01/11 00:30:59;;;;;;;;;;;;;;;4.43;68.42;98198.00;4984913;28;19934;-70
2023/01/11 00:33:27;;;;;;;;;;;;;;;4.59;68.08;98186.22;4989874;28;20126;-70
2023/01/11 00:35:56;;;;;;;;;;;;;;;4.53;68.37;98189.97;4990331;28;19941;-71
2023/01/11 00:38:45;;;;;;;;;;;;;;;4.53;68.44;98189.97;4991419;28;19926;-70
2023/01/11 00:49:43;;;;;;;;;;;;;;;4.51;68.58;98167.88;4990660;28;20473;-70
2023/01/11 00:52:11;;;;;;;;;;;;;;;4.53;69.08;98162.22;4994812;28;20442;-70
2023/01/11 00:54:41;;;;;;;;;;;;;;;4.50;69.45;98163.59;4995429;28;19925;-70
2023/01/11 00:57:09;;;;;;;;;;;;;;;4.50;69.16;98158.22;5010195;28;19972;-70
2023/01/11 00:59:38;;;;;;;;;;;;;;;4.38;70.18;98157.66;5010317;28;19926;-70
2023/01/11 01:07:50;;;;;;;;;;;;;;;4.28;72.18;98150.34;5010488;28;19925;-70
2023/01/11 01:10:19;;;;;;;;;;;;;;;4.40;72.27;98153.59;5011165;28;19933;-71
2023/01/11 01:15:38;;;;;;;;;;;;;;;4.36;73.65;98152.50;5003855;28;20260;-70
2023/01/11 01:18:06;;;;;;;;;;;;;;;4.25;75.22;98155.44;5010353;28;19933;-70
2023/01/11 01:20:34;;;;;;;;;;;;;;;4.23;75.65;98153.03;5009085;28;19936;-70
2023/01/11 01:23:02;;;;;;;;;;;;;;;4.15;76.19;98156.22;5007843;28;19925;-70
2023/01/11 01:25:31;;;;;;;;;;;;;;;4.22;76.02;98155.97;4991531;28;19935;-70
2023/01/11 01:27:59;;;;;;;;;;;;;;;4.32;76.03;98156.03;5008379;28;19937;-70
2023/01/11 01:30:27;;;;;;;;;;;;;;;4.39;76.08;98152.00;5004775;28;19933;-70
2023/01/11 01:32:55;;;;;;;;;;;;;;;4.23;76.82;98150.34;5011674;28;19931;-72
2023/01/11 01:35:23;;;;;;;;;;;;;;;4.28;76.83;98147.66;5007615;28;19933;-70
2023/01/11 01:37:51;;;;;;;;;;;;;;;4.29;76.65;98145.78;5007181;28;19925;-71
2023/01/11 01:40:20;;;;;;;;;;;;;;;4.16;77.36;98130.97;5006376;28;19929;-71
2023/01/11 01:42:53;;;;;;;;;;;;;;;4.22;77.71;98134.47;5010257;28;20367;-71
2023/01/11 01:45:23;;;;;;;;;;;;;;;4.33;76.90;98131.53;5002406;28;19929;-72
2023/01/11 01:47:52;;;;;;;;;;;;;;;4.26;77.33;98119.41;5010673;28;19941;-72
2023/01/11 01:50:22;;;;;;;;;;;;;;;4.31;76.77;98127.50;5007415;28;19925;-70
2023/01/11 01:52:51;;;;;;;;;;;;;;;4.14;77.38;98122.34;5007308;28;19926;-70
2023/01/11 01:55:22;;;;;;;;;;;;;;;4.20;77.89;98122.06;5008147;28;19930;-70
2023/01/11 01:57:50;;;;;;;;;;;;;;;4.24;77.64;98116.19;5009015;28;19972;-70
2023/01/11 02:00:20;;;;;;;;;;;;;;;4.30;76.95;98118.63;5010015;28;19936;-69
2023/01/11 02:02:48;;;;;;;;;;;;;;;4.35;77.08;98117.81;5014422;28;19930;-70
2023/01/11 02:05:16;;;;;;;;;;;;;;;4.32;77.45;98108.41;5013802;28;19933;-70
2023/01/11 02:07:44;;;;;;;;;;;;;;;4.49;76.84;98105.47;5011731;28;20639;-70
2023/01/11 02:10:14;;;;;;;;;;;;;;;4.37;76.90;98103.03;5011278;28;19932;-70
2023/01/11 02:12:43;;;;;;;;;;;;;;;4.42;77.11;98102.22;5013693;28;19976;-70
2023/01/11 02:15:11;;;;;;;;;;;;;;;4.33;77.73;98098.47;5006002;28;19983;-70
2023/01/11 02:17:40;;;;;;;;;;;;;;;4.39;77.89;98102.78;4995756;28;20383;-70
2023/01/11 02:20:12;;;;;;;;;;;;;;;4.40;77.59;98099.00;4993450;28;20043;-70
2023/01/11 02:22:45;;;;;;;;;;;;;;;4.45;77.90;98096.31;5009008;28;19925;-70
2023/01/11 02:25:23;;;;;;;;;;;;;;;4.48;77.78;98095.81;5009611;28;20355;-70
2023/01/11 02:27:58;;;;;;;;;;;;;;;4.50;77.32;98082.88;5011955;28;20382;-71
2023/01/11 02:30:28;;;;;;;;;;;;;;;4.46;77.79;98079.09;5005840;28;19929;-70
2023/01/11 02:32:57;;;;;;;;;;;;;;;4.45;77.79;98090.94;5011330;28;19933;-70
2023/01/11 02:35:28;;;;;;;;;;;;;;;4.43;77.92;98074.28;5014212;28;19936;-70
2023/01/11 02:37:59;;;;;;;;;;;;;;;4.47;77.78;98078.03;4993667;28;19926;-70
2023/01/11 02:40:27;;;;;;;;;;;;;;;4.39;78.25;98073.19;5012827;28;20367;-70
2023/01/11 02:48:40;;;;;;;;;;;;;;;4.49;77.63;98059.75;5011705;28;19968;-69
2023/01/11 02:51:08;;;;;;;;;;;;;;;4.51;77.74;98062.97;5011239;28;19934;-69
2023/01/11 02:53:37;;;;;;;;;;;;;;;4.54;77.93;98064.31;5012971;28;19977;-70
2023/01/11 02:56:06;;;;;;;;;;;;;;;4.42;77.94;98065.41;5007261;28;20299;-70
2023/01/11 02:58:35;;;;;;;;;;;;;;;4.37;78.03;98072.66;5010090;28;19926;-70
2023/01/11 03:01:04;;;;;;;;;;;;;;;4.50;77.69;98065.94;4992542;28;19925;-69
2023/01/11 03:04:23;;;;;;;;;;;;;;;4.38;78.36;98052.75;5010165;28;20489;-69
2023/01/11 03:06:53;;;;;;;;;;;;;;;4.50;78.47;98060.56;5012208;28;19926;-71
2023/01/11 03:09:22;;;;;;;;;;;;;;;4.40;78.27;98050.59;4992853;28;19949;-70
2023/01/11 03:14:46;;;;;;;;;;;;;;;4.45;78.33;98047.91;5009621;28;19980;-70
2023/01/11 03:17:18;;;;;;;;;;;;;;;4.41;78.17;98052.19;5004250;28;19925;-70
2023/01/11 03:19:47;;;;;;;;;;;;;;;4.45;78.55;98048.69;5012811;28;19925;-70
2023/01/11 03:22:16;;;;;;;;;;;;;;;4.54;77.96;98042.81;5009973;28;19937;-70
2023/01/11 03:24:47;;;;;;;;;;;;;;;4.53;78.17;98039.31;5010575;28;19925;-70
2023/01/11 03:30:11;;;;;;;;;;;;;;;4.51;78.18;98040.63;5007313;28;19929;-70
2023/01/11 03:32:41;;;;;;;;;;;;;;;4.56;77.66;98035.25;5006331;28;19936;-70
2023/01/11 03:35:12;;;;;;;;;;;;;;;4.56;78.08;98036.06;5011624;28;20065;-71
2023/01/11 03:37:41;;;;;;;;;;;;;;;4.54;78.15;98029.34;5010237;28;19929;-70
2023/01/11 03:40:09;;;;;;;;;;;;;;;4.58;77.75;98030.41;5013962;28;19934;-70
2023/01/11 03:43:09;;;;;;;;;;;;;;;4.59;78.16;98027.47;5007360;28;19925;-71
2023/01/11 03:45:28;;;;;;;;;;;;;;;4.65;78.10;98012.94;5006792;28;20307;-69
2023/01/11 03:48:21;;;;;;;;;;;;;;;4.64;77.92;98000.56;5010851;28;19933;-70
2023/01/11 03:50:51;;;;;;;;;;;;;;;4.62;78.13;97994.63;5014175;28;19934;-70
2023/01/11 03:53:19;;;;;;;;;;;;;;;4.78;77.44;98005.38;5012832;28;20291;-69
2023/01/11 03:55:48;;;;;;;;;;;;;;;4.79;77.19;97998.91;5015806;28;19925;-70
2023/01/11 03:58:16;;;;;;;;;;;;;;;4.69;77.47;97995.16;5000196;28;19960;-70
2023/01/11 04:00:44;;;;;;;;;;;;;;;4.73;77.79;97996.22;5009919;28;20633;-70
2023/01/11 04:03:20;;;;;;;;;;;;;;;4.66;77.56;98001.06;5014888;28;19925;-70
2023/01/11 04:05:50;;;;;;;;;;;;;;;4.70;77.44;97994.09;5017211;28;19926;-70
2023/01/11 04:08:20;;;;;;;;;;;;;;;4.65;77.23;97986.00;5015738;28;19930;-71
2023/01/11 04:10:52;;;;;;;;;;;;;;;4.70;77.25;97988.72;5009573;28;19956;-70
2023/01/11 04:13:24;;;;;;;;;;;;;;;4.58;77.26;97993.56;5011140;28;20419;-70
2023/01/11 04:15:53;;;;;;;;;;;;;;;4.56;77.70;97989.53;4990793;28;20334;-70
2023/01/11 04:18:23;;;;;;;;;;;;;;;4.71;76.99;97987.63;5010765;28;19925;-70
2023/01/11 04:20:51;;;;;;;;;;;;;;;4.58;77.62;97988.19;4991879;28;19934;-72
2023/01/11 04:23:20;;;;;;;;;;;;;;;4.61;77.59;97984.94;4992691;28;20051;-69
2023/01/11 04:25:48;;;;;;;;;;;;;;;4.69;76.67;97989.78;5011926;28;19932;-69
2023/01/11 04:28:16;;;;;;;;;;;;;;;4.67;77.40;97983.03;5011477;28;20291;-70
2023/01/11 04:30:44;;;;;;;;;;;;;;;4.72;77.15;97989.22;5001887;28;19933;-70
2023/01/11 04:33:13;;;;;;;;;;;;;;;4.73;76.95;97981.97;4992434;28;19926;-69
2023/01/11 04:35:41;;;;;;;;;;;;;;;4.71;76.49;97982.25;5009837;28;19948;-70
2023/01/11 04:38:08;;;;;;;;;;;;;;;4.69;76.94;97988.97;5010889;28;19992;-70
2023/01/11 04:40:37;;;;;;;;;;;;;;;4.77;76.78;97990.31;5010273;28;20333;-70
2023/01/11 04:48:50;;;;;;;;;;;;;;;4.79;77.32;97993.53;4993929;28;19979;-70
2023/01/11 04:51:18;;;;;;;;;;;;;;;4.75;77.62;97997.84;5010979;28;19934;-70
2023/01/11 04:56:41;;;;;;;;;;;;;;;4.73;77.34;97988.16;5012828;28;19933;-70
2023/01/11 04:59:09;;;;;;;;;;;;;;;4.87;77.56;97979.53;5004813;28;20283;-70
2023/01/11 05:02:02;;;;;;;;;;;;;;;4.82;77.14;97974.16;5006260;28;19926;-70
2023/01/11 05:04:30;;;;;;;;;;;;;;;4.85;77.33;97981.69;5006263;28;19929;-71
2023/01/11 05:06:58;;;;;;;;;;;;;;;4.82;77.60;97983.03;5007209;28;20016;-70
2023/01/11 05:09:27;;;;;;;;;;;;;;;4.86;77.68;97978.72;5008286;28;19940;-70
2023/01/11 05:14:47;;;;;;;;;;;;;;;4.93;77.34;97978.44;5007062;28;20307;-70
2023/01/11 05:17:16;;;;;;;;;;;;;;;4.95;77.53;97977.09;5004921;28;19971;-70
2023/01/11 05:19:44;;;;;;;;;;;;;;;4.88;77.11;97971.16;5012494;28;19979;-70
2023/01/11 05:22:14;;;;;;;;;;;;;;;4.83;77.33;97970.38;5010190;28;19936;-70
2023/01/11 05:24:44;;;;;;;;;;;;;;;4.95;76.87;97970.88;5012676;28;19931;-70
2023/01/11 05:27:13;;;;;;;;;;;;;;;4.96;76.41;97964.44;5008546;28;19949;-70
2023/01/11 05:29:42;;;;;;;;;;;;;;;4.90;76.77;97958.25;4992489;28;19976;-70
2023/01/11 05:32:12;;;;;;;;;;;;;;;4.92;77.02;97956.09;4995893;28;19940;-71
2023/01/11 05:34:39;;;;;;;;;;;;;;;4.89;76.25;97953.13;5008933;28;19926;-71
2023/01/11 05:37:07;;;;;;;;;;;;;;;4.90;76.83;97954.72;4992879;28;19930;-70
2023/01/11 05:39:35;;;;;;;;;;;;;;;5.00;76.52;97941.25;5008092;28;19932;-71
2023/01/11 05:48:00;;;;;;;;;;;;;;;5.07;76.13;97935.59;4912884;29;19927;-71
2023/01/11 05:50:28;;;;;;;;;;;;;;;5.07;75.94;97930.22;4925372;29;19977;-70
2023/01/11 05:52:56;;;;;;;;;;;;;;;5.08;76.21;97932.63;4967513;28;19932;-70
2023/01/11 05:55:24;;;;;;;;;;;;;;;5.07;76.07;97920.25;5002932;28;20464;-70
2023/01/11 05:57:52;;;;;;;;;;;;;;;5.12;75.66;97922.13;5005036;28;19948;-70
2023/01/11 06:00:49;;;;;;;;;;;;;;;5.10;75.63;97919.66;5001207;28;19932;-70
2023/01/11 06:03:23;;;;;;;;;;;;;;;5.11;76.36;97905.13;5005445;28;19933;-71
2023/01/11 06:05:51;;;;;;;;;;;;;;;5.04;75.97;97909.19;5003614;28;20706;-72
2023/01/11 06:08:19;;;;;;;;;;;;;;;4.97;76.59;97910.31;5005665;28;19929;-71
2023/01/11 06:10:50;;;;;;;;;;;;;;;5.08;76.35;97918.34;5006760;28;19933;-71
2023/01/11 06:13:29;;;;;;;;;;;;;;;5.10;76.52;97914.28;5008487;28;19925;-72
2023/01/11 06:15:59;;;;;;;;;;;;;;;5.15;76.20;97916.97;5000477;28;19926;-70
2023/01/11 06:18:28;;;;;;;;;;;;;;;5.18;76.21;97915.63;5009650;28;19925;-70
2023/01/11 06:20:56;;;;;;;;;;;;;;;5.20;75.82;97922.31;5003942;28;19941;-70
2023/01/11 06:23:24;;;;;;;;;;;;;;;5.27;76.01;97924.72;5007091;28;19929;-70
2023/01/11 06:25:52;;;;;;;;;;;;;;;5.32;75.53;97921.19;5009229;28;19934;-70
2023/01/11 06:28:20;;;;;;;;;;;;;;;5.43;75.85;97912.81;4989914;28;19933;-70
2023/01/11 06:30:51;;;;;;;;;;;;;;;5.46;75.15;97914.13;4984616;28;19979;-70
2023/01/11 06:33:21;;;;;;;;;;;;;;;5.45;75.46;97915.22;5007409;28;19968;-65
2023/01/11 06:35:50;;;;;;;;;;;;;;;5.51;75.27;97927.56;5009595;28;20397;-65
2023/01/11 06:38:17;;;;;;;;;;;;;;;5.49;75.49;97929.75;4991079;28;20380;-64
2023/01/11 06:40:51;;;;;;;;;;;;;;;5.58;75.07;97930.75;4991060;28;20014;-64
2023/01/11 06:43:21;;;;;;;;;;;;;;;5.63;74.85;97925.34;4993911;28;19960;-65
2023/01/11 06:46:17;;;;;;;;;;;;;;;5.74;74.76;97924.19;5006804;28;19936;-65
2023/01/11 06:48:47;;;;;;;;;;;;;;;5.56;75.05;97922.16;4990661;28;19925;-64
2023/01/11 06:51:39;;;;;;;;;;;;;;;5.61;74.80;97924.81;5012376;28;19926;-64
2023/01/11 06:54:08;;;;;;;;;;;;;;;5.64;74.91;97913.47;5009645;28;19926;-64
2023/01/11 06:56:36;;;;;;;;;;;;;;;5.70;75.31;97917.78;5008806;28;19925;-65
2023/01/11 06:59:03;;;;;;;;;;;;;;;5.77;74.92;97912.06;5013406;28;19963;-65
2023/01/11 07:04:31;;;;;;;;;;;;;;;5.81;74.97;97901.53;4993522;28;20348;-64
2023/01/11 07:06:59;;;;;;;;;;;;;;;5.68;74.69;97892.97;4993122;28;19933;-64
2023/01/11 07:09:27;;;;;;;;;;;;;;;5.75;74.87;97898.88;5006445;28;20336;-65
2023/01/11 07:12:20;;;;;;;;;;;;;;;5.81;75.03;97905.03;5008270;28;20015;-64
2023/01/11 07:15:13;;;;;;;;;;;;;;;5.68;75.03;97898.38;4991473;28;19959;-64
2023/01/11 07:17:42;;;;;;;;;;;;;;;5.77;75.02;97903.97;5007322;28;19964;-64
2023/01/11 07:20:11;;;;;;;;;;;;;;;5.64;75.01;97891.91;4995712;28;19956;-64
2023/01/11 07:22:39;;;;;;;;;;;;;;;5.81;74.70;97905.03;5011476;28;19940;-66
2023/01/11 07:25:33;;;;;;;;;;;;;;;5.81;74.95;97904.22;4990811;28;19984;-66
2023/01/11 07:28:04;;;;;;;;;;;;;;;5.85;74.68;97906.06;4993723;28;19933;-64
2023/01/11 07:30:33;;;;;;;;;;;;;;;5.85;74.81;97897.16;5004673;28;20023;-66
2023/01/11 07:33:20;;;;;;;;;;;;;;;5.91;74.35;97890.66;4989924;28;20023;-67
2023/01/11 07:35:50;;;;;;;;;;;;;;;5.87;74.15;97890.44;5013715;28;19942;-64
2023/01/11 07:38:18;;;;;;;;;;;;;;;5.85;74.09;97889.09;5013382;28;19925;-65
2023/01/11 07:40:46;;;;;;;;;;;;;;;5.92;74.12;97886.91;4991052;28;19959;-65
2023/01/11 07:48:58;;;;;;;;;;;;;;;6.12;73.02;97885.94;5012382;28;19936;-64
2023/01/11 07:51:28;;;;;;;;;;;;;;;6.14;73.39;97894.56;5012328;28;19972;-64
2023/01/11 07:54:01;;;;;;;;;;;;;;;6.11;73.39;97892.41;5012386;28;20379;-66
2023/01/11 07:56:31;;;;;;;;;;;;;;;6.13;73.39;97899.16;5009669;28;19936;-64
2023/01/11 07:58:59;;;;;;;;;;;;;;;6.17;73.72;97884.00;4992146;28;19930;-64
2023/01/11 08:01:29;;;;;;;;;;;;;;;6.26;72.76;97893.09;5004409;28;19929;-64
2023/01/11 08:04:24;;;;;;;;;;;;;;;6.24;73.11;97884.50;5012407;28;19940;-64
2023/01/11 08:06:54;;;;;;;;;;;;;;;6.33;72.40;97883.84;5008059;28;20035;-65
2023/01/11 08:09:22;;;;;;;;;;;;;;;6.34;72.13;97878.19;5013154;28;19926;-65
2023/01/11 08:14:48;;;;;;;;;;;;;;;6.42;71.69;97879.47;4972174;28;19933;-64
2023/01/11 08:17:16;;;;;;;;;;;;;;;6.42;71.62;97874.06;4998151;28;20009;-66
2023/01/11 08:19:45;;;;;;;;;;;;;;;6.47;71.80;97877.53;5012801;28;19960;-65
2023/01/11 08:22:17;;;;;;;;;;;;;;;6.41;71.98;97867.06;5014144;28;19925;-65
2023/01/11 08:24:46;;;;;;;;;;;;;;;6.51;71.77;97867.78;5012202;28;19933;-64
2023/01/11 08:27:14;;;;;;;;;;;;;;;6.53;71.24;97867.47;5013401;28;19948;-66
2023/01/11 08:29:43;;;;;;;;;;;;;;;6.60;71.81;97862.53;5008707;28;19937;-65
2023/01/11 08:32:11;;;;;;;;;;;;;;;6.50;71.24;97865.38;5004505;28;20013;-66
2023/01/11 08:34:40;;;;;;;;;;;;;;;6.58;71.32;97864.72;5008869;28;19929;-68
2023/01/11 08:37:08;;;;;;;;;;;;;;;6.66;71.25;97853.31;4995528;28;20375;-65
2023/01/11 08:39:39;;;;;;;;;;;;;;;6.71;71.06;97850.56;5011781;28;19925;-65
2023/01/11 08:42:07;;;;;;;;;;;;;;;6.79;71.00;97863.41;5011490;28;19929;-65
2023/01/11 08:44:35;;;;;;;;;;;;;;;6.79;71.07;97874.22;5010695;28;19926;-65
2023/01/11 08:47:03;;;;;;;;;;;;;;;6.88;71.00;97874.38;5004884;28;19929;-65
2023/01/11 08:49:32;;;;;;;;;;;;;;;6.89;70.87;97877.91;5004053;28;19933;-65
2023/01/11 08:52:00;;;;;;;;;;;;;;;6.89;70.79;97880.59;5010353;28;20047;-65
2023/01/11 08:54:29;;;;;;;;;;;;;;;6.90;70.97;97879.50;5014343;28;19926;-65
2023/01/11 08:56:58;;;;;;;;;;;;;;;6.93;70.94;97873.53;5010844;28;20050;-65
2023/01/11 08:59:26;;;;;;;;;;;;;;;7.04;71.16;97873.13;4990834;28;19926;-65
2023/01/11 09:02:01;;;;;;;;;;;;;;;6.98;70.77;97860.75;4999555;28;19926;-65
2023/01/11 09:04:30;;;;;;;;;;;;;;;7.08;70.63;97871.44;5005557;28;19925;-66
2023/01/11 09:06:58;;;;;;;;;;;;;;;7.07;70.53;97864.41;5010074;28;19930;-65
2023/01/11 09:09:27;;;;;;;;;;;;;;;7.06;70.84;97864.72;5011811;28;19925;-65
2023/01/11 09:12:21;;;;;;;;;;;;;;;7.09;70.83;97872.25;4989495;28;19976;-65
2023/01/11 09:15:14;;;;;;;;;;;;;;;7.13;70.43;97873.25;5003812;28;19992;-65
2023/01/11 09:17:43;;;;;;;;;;;;;;;7.08;70.62;97876.84;5009268;28;19925;-65
2023/01/11 09:20:11;;;;;;;;;;;;;;;7.08;70.60;97866.03;5010132;28;19936;-65
2023/01/11 09:22:41;;;;;;;;;;;;;;;7.01;71.08;97870.19;5010794;28;19932;-65
2023/01/11 09:25:11;;;;;;;;;;;;;;;7.05;70.76;97872.00;5011497;28;20280;-65
2023/01/11 09:27:42;;;;;;;;;;;;;;;7.01;70.57;97870.19;5011011;28;20353;-65
2023/01/11 09:30:11;;;;;;;;;;;;;;;7.12;70.75;97876.25;4987830;28;20253;-65
2023/01/11 09:32:43;;;;;;;;;;;;;;;7.05;70.91;97879.31;5007307;28;19936;-65
2023/01/11 09:35:15;;;;;;;;;;;;;;;7.26;70.11;97875.25;5006635;28;19932;-67
2023/01/11 09:37:48;;;;;;;;;;;;;;;7.33;69.73;97875.69;5009735;28;19932;-66
2023/01/11 09:40:44;;;;;;;;;;;;;;;7.42;69.49;97870.47;5012277;28;19925;-67
2023/01/11 09:43:16;;;;;;;;;;;;;;;7.52;69.16;97858.72;5011361;28;19934;-69
2023/01/11 09:45:45;;;;;;;;;;;;;;;7.37;69.61;97869.72;5007874;28;19932;-73
2023/01/11 09:48:22;;;;;;;;;;;;;;;7.44;69.42;97859.34;4999943;28;19933;-71
2023/01/11 09:50:54;;;;;;;;;;;;;;;7.35;70.20;97851.09;4994356;28;19926;-65
2023/01/11 09:53:30;;;;;;;;;;;;;;;7.52;69.85;97846.00;4994552;28;20346;-65
2023/01/11 09:56:01;;;;;;;;;;;;;;;7.43;69.93;97841.53;4987955;28;20012;-65
2023/01/11 09:58:37;;;;;;;;;;;;;;;7.40;70.19;97836.69;5010543;28;19925;-65
2023/01/11 10:01:11;;;;;;;;;;;;;;;7.47;70.38;97837.16;4999603;28;19936;-64
2023/01/11 10:04:02;;;;;;;;;;;;;;;7.50;71.19;97831.94;5006222;28;19925;-65
2023/01/11 10:09:27;;;;;;;;;;;;;;;7.64;70.65;97823.91;5008795;28;19956;-65
2023/01/11 10:12:17;;;;;;;;;;;;;;;7.67;71.13;97825.22;5003676;28;19944;-66
2023/01/11 10:15:11;;;;;;;;;;;;;;;7.77;70.57;97816.94;5002503;28;20014;-68
2023/01/11 10:18:04;;;;;;;;;;;;;;;7.76;70.38;97821.53;5004055;28;20465;-65
2023/01/11 10:20:55;;;;;;;;;;;;;;;7.85;70.13;97814.38;5012406;28;20383;-65
2023/01/11 10:23:26;;;;;;;;;;;;;;;7.75;69.75;97816.44;5012323;28;19955;-65
2023/01/11 10:25:57;;;;;;;;;;;;;;;7.88;69.46;97813.78;5014600;28;20018;-64
2023/01/11 10:28:30;;;;;;;;;;;;;;;8.01;69.44;97814.13;5014280;28;19936;-65
2023/01/11 10:31:25;;;;;;;;;;;;;;;8.06;69.65;97803.22;5008347;28;19937;-65
2023/01/11 10:34:12;;;;;;;;;;;;;;;8.13;68.29;97796.31;5013766;28;20029;-65
2023/01/11 10:37:00;;;;;;;;;;;;;;;8.20;68.41;97785.09;5010314;28;20386;-65
2023/01/11 10:39:49;;;;;;;;;;;;;;;8.22;68.27;97774.78;5006664;28;19933;-65
2023/01/11 10:42:20;;;;;;;;;;;;;;;8.29;68.74;97775.19;5012942;28;19930;-65
2023/01/11 10:44:51;;;;;;;;;;;;;;;8.29;68.57;97769.75;4994874;28;19925;-65
2023/01/11 10:47:20;;;;;;;;;;;;;;;8.25;68.35;97770.66;5006290;28;19933;-65
2023/01/11 10:49:49;;;;;;;;;;;;;;;8.31;68.63;97773.00;5013308;28;19929;-65
2023/01/11 10:52:23;;;;;;;;;;;;;;;8.31;69.25;97767.56;4998263;28;20383;-65
2023/01/11 10:54:54;;;;;;;;;;;;;;;8.30;68.98;97774.06;5011529;28;19930;-65
2023/01/11 10:57:25;;;;;;;;;;;;;;;8.27;69.41;97776.59;4993897;28;19936;-65
2023/01/11 10:59:57;;;;;;;;;;;;;;;8.27;68.97;97777.38;5012225;28;19926;-65
2023/01/11 11:02:30;;;;;;;;;;;;;;;8.28;69.29;97781.69;5008774;28;19925;-65
2023/01/11 11:07:57;;;;;;;;;;;;;;;8.14;70.52;97780.88;5009939;28;19949;-65
2023/01/11 11:10:27;;;;;;;;;;;;;;;8.29;70.14;97777.09;5012730;28;20405;-65
2023/01/11 11:12:57;;;;;;;;;;;;;;;8.37;69.75;97774.53;5011735;28;19925;-65
2023/01/11 11:15:27;;;;;;;;;;;;;;;8.28;70.12;97762.75;4989812;28;19926;-65
2023/01/11 11:17:56;;;;;;;;;;;;;;;8.55;69.90;97767.41;5010644;28;19933;-65
2023/01/11 11:20:29;;;;;;;;;;;;;;;8.47;70.63;97764.59;5017483;28;20390;-65
2023/01/11 11:23:01;;;;;;;;;;;;;;;8.51;70.95;97762.88;5011475;28;19937;-64
2023/01/11 11:25:29;;;;;;;;;;;;;;;8.54;71.33;97765.00;4994270;28;19944;-65
2023/01/11 11:27:58;;;;;;;;;;;;;;;8.48;71.68;97760.78;5010596;28;19925;-64
2023/01/11 11:30:28;;;;;;;;;;;;;;;8.50;72.49;97767.50;5007010;28;19969;-64
2023/01/11 11:32:57;;;;;;;;;;;;;;;8.46;72.73;97763.78;4996485;28;19926;-64
2023/01/11 11:35:36;;;;;;;;;;;;;;;8.39;73.18;97758.78;4995113;28;19933;-64
2023/01/11 11:38:05;;;;;;;;;;;;;;;8.34;74.08;97755.34;5012898;28;19926;-65
2023/01/11 11:40:34;;;;;;;;;;;;;;;8.35;74.53;97752.31;5012933;28;19925;-65
2023/01/11 11:43:16;;;;;;;;;;;;;;;8.31;74.86;97742.38;4995359;28;19955;-66
2023/01/11 11:45:50;;;;;;;;;;;;;;;8.32;75.50;97741.31;5004959;28;19948;-65
2023/01/11 11:48:43;;;;;;;;;;;;;;;8.31;76.40;97737.81;5011801;28;19933;-65
2023/01/11 11:51:20;;;;;;;;;;;;;;;8.28;75.51;97741.09;5009410;28;19940;-66
2023/01/11 11:54:13;;;;;;;;;;;;;;;8.33;75.91;97724.75;5012056;28;20590;-65
2023/01/11 11:56:42;;;;;;;;;;;;;;;8.34;76.76;97728.25;5007860;28;19934;-66
2023/01/11 11:59:13;;;;;;;;;;;;;;;8.30;76.99;97733.47;5007972;28;20331;-65
2023/01/11 12:02:05;;;;;;;;;;;;;;;8.37;76.65;97728.50;5002486;28;20336;-64
2023/01/11 12:04:37;;;;;;;;;;;;;;;8.29;77.18;97725.66;5013648;28;20394;-65
2023/01/11 12:07:08;;;;;;;;;;;;;;;8.24;77.97;97723.06;5005316;28;19925;-65
2023/01/11 12:09:36;;;;;;;;;;;;;;;8.30;77.91;97716.44;5008323;28;19941;-64
2023/01/11 12:12:09;;;;;;;;;;;;;;;8.19;78.68;97721.25;5012256;28;19956;-64
2023/01/11 12:14:38;;;;;;;;;;;;;;;8.21;78.91;97718.25;5010225;28;20248;-64
2023/01/11 12:17:16;;;;;;;;;;;;;;;8.13;78.87;97717.81;4989311;28;19926;-65
2023/01/11 12:19:46;;;;;;;;;;;;;;;8.17;79.10;97722.66;5007749;28;20302;-65
2023/01/11 12:22:16;;;;;;;;;;;;;;;8.25;78.27;97719.22;5008633;28;19978;-64
2023/01/11 12:24:44;;;;;;;;;;;;;;;8.18;79.20;97713.44;5009490;28;20642;-66
2023/01/11 12:30:14;;;;;;;;;;;;;;;8.16;79.89;97705.63;5006171;28;20100;-65
2023/01/11 12:32:50;;;;;;;;;;;;;;;8.17;80.13;97704.50;5012416;28;19929;-65
2023/01/11 12:35:21;;;;;;;;;;;;;;;8.08;80.89;97707.09;4992140;28;19925;-65
2023/01/11 12:37:54;;;;;;;;;;;;;;;8.10;80.93;97704.13;5013017;28;19949;-65
2023/01/11 12:40:25;;;;;;;;;;;;;;;8.16;80.80;97700.22;5008411;28;20294;-65
2023/01/11 12:42:58;;;;;;;;;;;;;;;8.20;80.63;97703.91;5009438;28;19957;-65
2023/01/11 12:45:29;;;;;;;;;;;;;;;8.17;80.77;97701.81;4988934;28;20418;-65
2023/01/11 12:48:01;;;;;;;;;;;;;;;8.16;81.26;97705.63;5006565;28;19933;-65
2023/01/11 12:50:30;;;;;;;;;;;;;;;8.13;81.61;97711.63;5010685;28;19957;-65
2023/01/11 12:53:02;;;;;;;;;;;;;;;8.10;81.50;97706.81;4992866;28;19937;-65
2023/01/11 12:55:36;;;;;;;;;;;;;;;7.98;82.11;97709.19;5005989;28;19932;-65
2023/01/11 12:58:07;;;;;;;;;;;;;;;8.02;82.11;97707.50;5007248;28;19948;-65
2023/01/11 13:01:03;;;;;;;;;;;;;;;8.01;81.85;97714.03;5002714;28;20040;-65
2023/01/11 13:03:36;;;;;;;;;;;;;;;7.85;82.95;97703.47;5008816;28;19930;-65
2023/01/11 13:06:07;;;;;;;;;;;;;;;7.93;82.74;97706.59;5010618;28;19971;-67
2023/01/11 13:08:39;;;;;;;;;;;;;;;7.92;83.06;97697.66;5010199;28;19929;-65
2023/01/11 13:11:09;;;;;;;;;;;;;;;7.82;83.24;97703.25;5010193;28;19929;-66
2023/01/11 13:13:43;;;;;;;;;;;;;;;7.72;83.87;97701.53;5008390;28;19926;-66
2023/01/11 13:16:15;;;;;;;;;;;;;;;7.79;83.92;97704.69;5005223;28;19983;-66
2023/01/11 13:18:47;;;;;;;;;;;;;;;7.77;83.88;97704.16;4989747;28;19932;-65
2023/01/11 13:21:18;;;;;;;;;;;;;;;7.73;84.04;97697.75;5004381;28;19929;-66
2023/01/11 13:23:46;;;;;;;;;;;;;;;7.75;84.35;97710.97;4989051;28;19933;-66
2023/01/11 13:26:17;;;;;;;;;;;;;;;7.77;84.32;97698.75;5007744;28;19926;-66
2023/01/11 13:28:48;;;;;;;;;;;;;;;7.75;84.60;97698.25;5009921;28;19929;-66
2023/01/11 13:31:17;;;;;;;;;;;;;;;7.82;84.13;97700.56;5001385;28;19929;-65
2023/01/11 13:33:47;;;;;;;;;;;;;;;7.74;84.65;97698.56;5010381;28;19925;-65
2023/01/11 13:36:15;;;;;;;;;;;;;;;7.80;84.83;97698.16;5004685;28;19925;-65
2023/01/11 13:38:52;;;;;;;;;;;;;;;7.76;85.06;97702.56;4992121;28;19975;-65
2023/01/11 13:41:21;;;;;;;;;;;;;;;7.82;84.76;97701.34;5006534;28;19926;-66
2023/01/11 13:43:54;;;;;;;;;;;;;;;7.84;85.02;97699.19;5007654;28;19933;-66
2023/01/11 13:46:25;;;;;;;;;;;;;;;7.83;84.94;97703.00;4997863;28;19937;-66
2023/01/11 13:49:21;;;;;;;;;;;;;;;7.86;84.83;97707.78;5005093;28;19926;-66
2023/01/11 13:51:50;;;;;;;;;;;;;;;7.82;84.97;97704.06;5009556;28;19995;-66
2023/01/11 13:54:20;;;;;;;;;;;;;;;7.95;84.78;97707.09;4991901;28;19930;-66
2023/01/11 13:56:50;;;;;;;;;;;;;;;7.95;84.55;97709.81;5012658;28;19941;-66
2023/01/11 13:59:21;;;;;;;;;;;;;;;7.98;84.11;97699.19;5014535;28;19925;-66
2023/01/11 14:02:15;;;;;;;;;;;;;;;7.87;84.82;97709.38;5003035;28;19929;-66
2023/01/11 14:04:47;;;;;;;;;;;;;;;8.01;84.13;97703.19;4993472;28;20387;-66
2023/01/11 14:07:18;;;;;;;;;;;;;;;8.13;83.88;97703.50;5011647;28;19933;-66
2023/01/11 14:09:59;;;;;;;;;;;;;;;8.08;83.93;97706.31;5014172;28;19980;-66
2023/01/11 14:12:34;;;;;;;;;;;;;;;8.11;83.89;97700.31;4997477;28;19933;-66
2023/01/11 14:15:11;;;;;;;;;;;;;;;8.10;83.80;97706.81;5014064;28;19936;-65
2023/01/11 14:17:43;;;;;;;;;;;;;;;8.01;83.86;97716.72;4994645;28;20322;-65
2023/01/11 14:20:14;;;;;;;;;;;;;;;8.07;83.39;97713.63;5013577;28;20465;-65
2023/01/11 14:22:44;;;;;;;;;;;;;;;8.10;83.56;97723.06;5013644;28;19929;-65
2023/01/11 14:25:14;;;;;;;;;;;;;;;7.97;84.36;97730.03;5013044;28;20112;-65
2023/01/11 14:27:53;;;;;;;;;;;;;;;8.08;84.06;97734.16;5013152;28;20383;-66
2023/01/11 14:30:48;;;;;;;;;;;;;;;7.97;84.38;97737.34;4990285;28;20395;-67